Time;durP1;ratioP1;P1;durP2;ratioP2;P2;SDS_P1;SDS_P2;PMS_P1;PMS_P2;Temp;Humidity;BMP_temperature;BMP_pressure;BME280_temperature;BME280_humidity;BME280_pressure;Samples;Min_cycle;Max_cycle;Signal;HPM_P1;HPM_P2
2022/11/17 04:00:28;;;;;;;;;;;18.40;51.50;;;;;;5970174;23;45768;-65
2022/11/17 04:02:54;;;;;;;;;;;18.50;51.60;;;;;;4914755;28;45696;-62
2022/11/17 04:05:20;;;;;;;;;;;18.50;51.70;;;;;;4925073;28;45418;-62
2022/11/17 04:07:45;;;;;;;;;;;18.40;51.60;;;;;;4935936;28;46114;-64
2022/11/17 04:10:18;;;;;;;;;;;18.40;51.60;;;;;;4918710;28;45535;-62
2022/11/17 04:18:12;;;;;;;;;;;18.40;51.70;;;;;;4928677;28;46249;-62
2022/11/17 04:20:37;;;;;;;;;;;18.40;51.70;;;;;;4936991;28;45019;-62
2022/11/17 04:23:06;;;;;;;;;;;18.40;51.60;;;;;;4936938;28;45582;-62
2022/11/17 04:28:37;;;;;;;;;;;18.40;51.60;;;;;;4931952;28;45853;-62
2022/11/17 04:31:13;;;;;;;;;;;18.40;51.60;;;;;;4932645;28;44993;-64
2022/11/17 04:33:40;;;;;;;;;;;18.40;51.70;;;;;;4907823;28;45361;-63
2022/11/17 04:36:05;;;;;;;;;;;18.30;51.60;;;;;;4936467;28;45012;-60
2022/11/17 04:38:31;;;;;;;;;;;18.40;51.70;;;;;;4917582;28;46958;-60
2022/11/17 04:43:44;;;;;;;;;;;18.30;51.70;;;;;;4936396;28;45406;-64
2022/11/17 04:46:09;;;;;;;;;;;18.30;51.70;;;;;;4929025;28;45201;-63
2022/11/17 04:48:35;;;;;;;;;;;18.30;51.70;;;;;;4933666;28;47143;-63
2022/11/17 04:51:00;;;;;;;;;;;18.30;51.60;;;;;;4934985;28;45225;-65
2022/11/17 04:53:26;;;;;;;;;;;18.30;51.60;;;;;;4933890;28;45490;-62
2022/11/17 04:55:51;;;;;;;;;;;18.30;51.60;;;;;;4925647;28;44791;-62
2022/11/17 04:58:17;;;;;;;;;;;18.30;51.60;;;;;;4934790;28;46098;-61
2022/11/17 05:00:42;;;;;;;;;;;18.30;51.70;;;;;;4934844;28;45527;-62
2022/11/17 05:03:08;;;;;;;;;;;18.30;51.70;;;;;;4933340;28;45536;-63
2022/11/17 05:05:33;;;;;;;;;;;18.30;51.70;;;;;;4935674;28;45193;-62
2022/11/17 05:07:59;;;;;;;;;;;18.30;51.70;;;;;;4932136;28;46020;-62
2022/11/17 05:13:20;;;;;;;;;;;18.30;51.80;;;;;;4934887;28;44967;-60
2022/11/17 05:13:24;;;;;;;;;;;18.20;51.70;;;;;;4934217;28;44796;-61
2022/11/17 05:18:37;;;;;;;;;;;18.20;51.70;;;;;;4927974;28;46017;-62
2022/11/17 05:21:03;;;;;;;;;;;18.20;51.70;;;;;;4936542;28;45181;-63
2022/11/17 05:26:13;;;;;;;;;;;18.20;51.70;;;;;;4934986;28;45237;-62
2022/11/17 05:28:39;;;;;;;;;;;18.20;51.70;;;;;;4936882;28;46875;-62
2022/11/17 05:31:04;;;;;;;;;;;18.20;51.80;;;;;;4917907;28;44985;-63
2022/11/17 05:33:30;;;;;;;;;;;18.20;51.80;;;;;;4937508;28;45005;-62
2022/11/17 05:35:55;;;;;;;;;;;18.20;51.80;;;;;;4940194;28;45446;-63
2022/11/17 05:38:20;;;;;;;;;;;18.20;51.80;;;;;;4935580;28;44960;-60
2022/11/17 05:40:46;;;;;;;;;;;18.10;51.70;;;;;;4937776;28;45388;-61
2022/11/17 05:43:11;;;;;;;;;;;18.10;51.70;;;;;;4937183;28;45528;-62
2022/11/17 05:45:37;;;;;;;;;;;18.10;51.70;;;;;;4936583;28;45509;-61
2022/11/17 05:48:02;;;;;;;;;;;18.10;51.80;;;;;;4934272;28;45407;-63
2022/11/17 05:50:28;;;;;;;;;;;18.10;51.80;;;;;;4936257;28;45242;-62
2022/11/17 05:52:53;;;;;;;;;;;18.10;51.80;;;;;;4933746;28;44794;-63
2022/11/17 05:55:19;;;;;;;;;;;18.10;51.80;;;;;;4938108;28;45427;-62
2022/11/17 05:57:44;;;;;;;;;;;18.10;51.80;;;;;;4935837;28;46010;-63
2022/11/17 06:00:10;;;;;;;;;;;18.10;51.80;;;;;;4916549;28;45538;-64
2022/11/17 06:02:37;;;;;;;;;;;18.10;51.80;;;;;;4934752;28;44963;-61
2022/11/17 06:05:02;;;;;;;;;;;18.10;51.70;;;;;;4915654;28;45623;-62
2022/11/17 06:07:28;;;;;;;;;;;18.10;51.70;;;;;;4932908;28;46248;-59
2022/11/17 06:09:53;;;;;;;;;;;18.10;51.80;;;;;;4920416;28;45656;-61
2022/11/17 06:12:18;;;;;;;;;;;18.10;51.80;;;;;;4930490;28;45241;-63
2022/11/17 06:14:44;;;;;;;;;;;18.10;51.80;;;;;;4937802;28;45201;-61
2022/11/17 06:17:11;;;;;;;;;;;18.10;51.80;;;;;;4929852;28;45256;-59
2022/11/17 06:19:38;;;;;;;;;;;18.00;51.70;;;;;;4935572;28;45277;-62
2022/11/17 06:22:03;;;;;;;;;;;18.10;51.80;;;;;;4923449;28;44971;-61
2022/11/17 06:24:29;;;;;;;;;;;18.00;51.80;;;;;;4927072;28;45169;-62
2022/11/17 06:26:54;;;;;;;;;;;18.00;51.80;;;;;;4927963;28;46254;-59
2022/11/17 06:29:19;;;;;;;;;;;18.00;51.80;;;;;;4935039;28;45288;-62
2022/11/17 06:31:45;;;;;;;;;;;18.00;51.70;;;;;;4936017;28;45232;-65
2022/11/17 06:34:10;;;;;;;;;;;18.00;51.80;;;;;;4938213;28;45668;-62
2022/11/17 06:36:36;;;;;;;;;;;18.00;51.80;;;;;;4935609;28;46849;-61
2022/11/17 06:39:01;;;;;;;;;;;18.00;51.80;;;;;;4935527;28;44995;-62
2022/11/17 06:41:27;;;;;;;;;;;18.00;51.80;;;;;;4935371;28;45425;-59
2022/11/17 06:43:52;;;;;;;;;;;18.00;51.80;;;;;;4938980;28;44936;-59
2022/11/17 06:46:18;;;;;;;;;;;18.00;51.80;;;;;;4933638;28;46104;-60
2022/11/17 06:48:44;;;;;;;;;;;18.00;51.80;;;;;;4919815;28;45669;-62
2022/11/17 06:51:09;;;;;;;;;;;18.00;51.80;;;;;;4921023;28;45007;-62
2022/11/17 06:53:35;;;;;;;;;;;18.00;51.80;;;;;;4932963;28;45628;-61
2022/11/17 06:58:26;;;;;;;;;;;17.90;51.80;;;;;;4935735;28;44731;-62
2022/11/17 07:00:51;;;;;;;;;;;17.90;51.80;;;;;;4933854;28;45510;-63
2022/11/17 07:03:17;;;;;;;;;;;17.90;51.80;;;;;;4939018;28;45403;-59
2022/11/17 07:05:42;;;;;;;;;;;17.90;51.80;;;;;;4936870;28;46148;-64
2022/11/17 07:08:08;;;;;;;;;;;17.90;51.80;;;;;;4923820;28;45522;-62
2022/11/17 07:10:33;;;;;;;;;;;17.90;51.80;;;;;;4933508;28;45485;-60
2022/11/17 07:12:59;;;;;;;;;;;17.90;51.70;;;;;;4937421;28;45582;-60
2022/11/17 07:15:24;;;;;;;;;;;18.00;51.80;;;;;;4939565;28;45282;-61
2022/11/17 07:17:50;;;;;;;;;;;18.10;51.70;;;;;;4936794;28;44996;-60
2022/11/17 07:20:15;;;;;;;;;;;18.10;51.40;;;;;;4938823;28;45306;-59
2022/11/17 07:22:41;;;;;;;;;;;18.30;51.30;;;;;;4918620;28;44934;-60
2022/11/17 07:25:07;;;;;;;;;;;18.50;51.00;;;;;;4940661;28;46137;-61
2022/11/17 07:27:32;;;;;;;;;;;18.70;50.70;;;;;;4935930;28;45208;-61
2022/11/17 07:29:58;;;;;;;;;;;18.90;50.40;;;;;;4937103;28;45374;-60
2022/11/17 07:32:23;;;;;;;;;;;19.00;50.20;;;;;;4936807;28;45669;-60
2022/11/17 07:34:56;;;;;;;;;;;19.20;49.90;;;;;;4938322;28;46121;-63
2022/11/17 07:37:21;;;;;;;;;;;19.40;49.70;;;;;;4935665;28;45414;-59
2022/11/17 07:39:46;;;;;;;;;;;19.50;49.50;;;;;;4940303;28;45199;-58
2022/11/17 07:42:12;;;;;;;;;;;19.70;49.40;;;;;;4939285;28;45264;-59
2022/11/17 07:44:37;;;;;;;;;;;19.80;49.20;;;;;;4938439;28;45279;-60
2022/11/17 07:47:03;;;;;;;;;;;20.00;49.10;;;;;;4938225;28;44618;-62
2022/11/17 07:49:28;;;;;;;;;;;20.10;48.90;;;;;;4939655;28;45984;-63
2022/11/17 07:51:54;;;;;;;;;;;20.20;48.80;;;;;;4936829;28;45837;-58
2022/11/17 07:54:19;;;;;;;;;;;20.30;48.70;;;;;;4936952;28;45773;-61
2022/11/17 07:56:45;;;;;;;;;;;20.40;48.60;;;;;;4937575;28;45482;-59
2022/11/17 07:59:11;;;;;;;;;;;20.50;48.50;;;;;;4938279;28;44992;-61
2022/11/17 08:01:37;;;;;;;;;;;20.60;48.30;;;;;;4929436;28;45470;-60
2022/11/17 08:04:02;;;;;;;;;;;20.80;48.20;;;;;;4937480;28;45884;-62
2022/11/17 08:06:28;;;;;;;;;;;20.90;48.10;;;;;;4924081;28;45310;-62
2022/11/17 08:08:53;;;;;;;;;;;21.00;48.00;;;;;;4939861;28;45328;-61
2022/11/17 08:11:19;;;;;;;;;;;21.10;47.90;;;;;;4939607;28;45026;-63
2022/11/17 08:13:44;;;;;;;;;;;21.20;47.70;;;;;;4938309;28;46016;-60
2022/11/17 08:16:11;;;;;;;;;;;21.30;47.50;;;;;;4936846;28;45196;-62
2022/11/17 08:18:37;;;;;;;;;;;21.40;47.50;;;;;;4936750;28;44838;-61
2022/11/17 08:21:12;;;;;;;;;;;21.50;47.30;;;;;;4939444;28;45475;-61
2022/11/17 08:23:38;;;;;;;;;;;21.60;47.20;;;;;;4938937;28;46108;-61
2022/11/17 08:26:04;;;;;;;;;;;21.70;47.10;;;;;;4936339;28;45264;-62
2022/11/17 08:28:29;;;;;;;;;;;21.80;47.00;;;;;;4925027;28;45066;-60
2022/11/17 08:30:54;;;;;;;;;;;22.00;46.90;;;;;;4937541;28;45220;-62
2022/11/17 08:33:20;;;;;;;;;;;22.00;46.80;;;;;;4935339;28;45975;-60
2022/11/17 08:35:45;;;;;;;;;;;22.10;46.80;;;;;;4935107;28;45491;-61
2022/11/17 08:38:14;;;;;;;;;;;22.20;46.70;;;;;;4937206;28;45509;-61
2022/11/17 08:40:39;;;;;;;;;;;22.20;46.60;;;;;;4938834;28;45357;-60
2022/11/17 08:43:05;;;;;;;;;;;22.30;46.60;;;;;;4934684;28;46165;-62
2022/11/17 08:45:30;;;;;;;;;;;22.40;46.50;;;;;;4937542;28;45370;-61
2022/11/17 08:47:56;;;;;;;;;;;22.50;46.40;;;;;;4934994;28;45627;-60
2022/11/17 08:50:21;;;;;;;;;;;22.50;46.30;;;;;;4938813;28;45144;-62
2022/11/17 08:52:47;;;;;;;;;;;22.60;46.20;;;;;;4930463;28;45170;-61
2022/11/17 08:55:13;;;;;;;;;;;22.70;46.80;;;;;;4938253;28;45191;-60
2022/11/17 08:57:38;;;;;;;;;;;22.70;46.10;;;;;;4934943;28;45508;-60
2022/11/17 09:00:07;;;;;;;;;;;22.70;46.00;;;;;;4936205;28;44976;-63
2022/11/17 09:02:32;;;;;;;;;;;22.80;46.00;;;;;;4939867;28;46275;-61
2022/11/17 09:04:58;;;;;;;;;;;22.80;45.90;;;;;;4940150;28;44887;-59
2022/11/17 09:07:24;;;;;;;;;;;22.80;45.80;;;;;;4937247;28;45304;-60
2022/11/17 09:09:49;;;;;;;;;;;22.90;45.80;;;;;;4923160;28;45550;-62
2022/11/17 09:12:15;;;;;;;;;;;22.90;45.70;;;;;;4930916;28;45998;-62
2022/11/17 09:14:40;;;;;;;;;;;23.00;45.90;;;;;;4942051;28;45961;-62
2022/11/17 09:17:06;;;;;;;;;;;23.00;45.70;;;;;;4940540;28;45414;-62
2022/11/17 09:19:31;;;;;;;;;;;23.10;46.30;;;;;;4934302;28;45280;-62
2022/11/17 09:21:57;;;;;;;;;;;23.10;45.60;;;;;;4930639;28;45868;-61
2022/11/17 09:24:23;;;;;;;;;;;23.10;45.60;;;;;;4941887;28;45510;-60
2022/11/17 09:26:48;;;;;;;;;;;23.20;45.50;;;;;;4937444;28;45364;-63
2022/11/17 09:29:14;;;;;;;;;;;23.20;45.50;;;;;;4932951;28;45257;-61
2022/11/17 09:31:39;;;;;;;;;;;23.30;45.50;;;;;;4938384;28;45962;-63
2022/11/17 09:34:05;;;;;;;;;;;23.30;45.50;;;;;;4938989;28;45181;-61
2022/11/17 09:36:30;;;;;;;;;;;23.30;45.40;;;;;;4934085;28;45261;-59
2022/11/17 09:38:56;;;;;;;;;;;23.40;45.30;;;;;;4935535;28;46084;-62
2022/11/17 09:41:41;;;;;;;;;;;23.50;45.30;;;;;;4935898;28;45645;-61
2022/11/17 09:44:13;;;;;;;;;;;23.50;45.20;;;;;;4936678;28;45001;-61
2022/11/17 09:46:44;;;;;;;;;;;23.60;45.10;;;;;;4939909;28;45457;-60
2022/11/17 09:49:25;;;;;;;;;;;23.60;45.00;;;;;;4933450;28;45201;-59
2022/11/17 09:51:50;;;;;;;;;;;23.60;44.90;;;;;;4936858;28;46681;-61
2022/11/17 09:54:19;;;;;;;;;;;23.70;45.00;;;;;;4938577;28;46139;-62
2022/11/17 09:56:44;;;;;;;;;;;23.70;44.90;;;;;;4917371;28;45217;-61
2022/11/17 09:59:11;;;;;;;;;;;23.70;44.80;;;;;;4917673;28;45389;-63
2022/11/17 10:01:37;;;;;;;;;;;23.80;44.80;;;;;;4919288;28;47204;-60
2022/11/17 10:04:06;;;;;;;;;;;23.80;44.70;;;;;;4931016;28;45422;-62
2022/11/17 10:06:32;;;;;;;;;;;23.80;44.70;;;;;;4922567;28;45445;-59
2022/11/17 10:09:10;;;;;;;;;;;23.90;44.70;;;;;;4938304;28;45708;-60
2022/11/17 10:11:39;;;;;;;;;;;23.90;44.70;;;;;;4931724;28;45321;-65
2022/11/17 10:14:14;;;;;;;;;;;24.00;44.70;;;;;;4919299;28;45323;-67
2022/11/17 10:16:48;;;;;;;;;;;24.00;44.70;;;;;;4931380;28;45497;-64
2022/11/17 10:19:33;;;;;;;;;;;23.90;44.70;;;;;;4917983;28;45250;-66
2022/11/17 10:22:02;;;;;;;;;;;24.00;44.80;;;;;;4934707;28;46058;-67
2022/11/17 10:24:33;;;;;;;;;;;24.00;44.80;;;;;;4935695;28;45161;-67
2022/11/17 10:26:59;;;;;;;;;;;24.00;44.80;;;;;;4933592;28;44852;-65
2022/11/17 10:29:25;;;;;;;;;;;24.00;44.70;;;;;;4934802;28;45591;-76
2022/11/17 10:31:50;;;;;;;;;;;24.10;44.80;;;;;;4932322;28;46041;-61
2022/11/17 10:34:32;;;;;;;;;;;24.10;44.80;;;;;;4932660;28;44709;-64
2022/11/17 10:37:00;;;;;;;;;;;24.10;44.80;;;;;;4934659;28;45297;-66
2022/11/17 10:39:36;;;;;;;;;;;24.10;44.70;;;;;;4924905;28;45261;-64
2022/11/17 10:42:10;;;;;;;;;;;24.10;44.70;;;;;;4937108;28;45888;-62
2022/11/17 10:44:35;;;;;;;;;;;24.10;44.60;;;;;;4914910;28;45309;-62
2022/11/17 10:47:06;;;;;;;;;;;24.20;44.70;;;;;;4916742;28;45602;-69
2022/11/17 10:49:33;;;;;;;;;;;24.20;44.70;;;;;;4930911;28;45112;-64
2022/11/17 10:52:07;;;;;;;;;;;24.20;44.60;;;;;;4933953;28;46910;-63
2022/11/17 10:54:33;;;;;;;;;;;24.20;44.60;;;;;;4936246;28;44659;-63
2022/11/17 10:56:58;;;;;;;;;;;24.20;44.60;;;;;;4935060;28;45569;-68
2022/11/17 10:59:28;;;;;;;;;;;24.30;44.60;;;;;;4909681;28;45849;-63
2022/11/17 11:01:54;;;;;;;;;;;24.20;44.50;;;;;;4933335;28;46140;-60
2022/11/17 11:04:40;;;;;;;;;;;24.30;44.60;;;;;;4943115;28;45257;-62
2022/11/17 11:07:10;;;;;;;;;;;24.30;44.60;;;;;;4939931;28;45217;-58
2022/11/17 11:09:40;;;;;;;;;;;24.30;44.60;;;;;;4937522;28;45881;-66
2022/11/17 11:12:08;;;;;;;;;;;24.30;44.50;;;;;;4924075;28;45834;-65
2022/11/17 11:14:45;;;;;;;;;;;24.40;45.20;;;;;;4911505;28;44641;-66
2022/11/17 11:17:11;;;;;;;;;;;24.40;44.40;;;;;;4933511;28;45319;-66
2022/11/17 11:19:37;;;;;;;;;;;24.30;44.50;;;;;;4941108;28;45493;-68
2022/11/17 11:22:21;;;;;;;;;;;24.30;44.40;;;;;;4921815;28;46940;-65
2022/11/17 11:24:52;;;;;;;;;;;24.30;44.50;;;;;;4933976;28;45268;-65
2022/11/17 11:27:42;;;;;;;;;;;24.30;44.50;;;;;;4915667;28;44803;-65
2022/11/17 11:30:11;;;;;;;;;;;24.30;44.50;;;;;;4935759;28;45216;-65
2022/11/17 11:32:40;;;;;;;;;;;24.30;44.50;;;;;;4934765;28;46102;-65
2022/11/17 11:35:23;;;;;;;;;;;24.20;44.50;;;;;;4921866;28;45380;-71
2022/11/17 11:38:08;;;;;;;;;;;24.30;44.50;;;;;;4938036;28;44762;-64
2022/11/17 11:40:37;;;;;;;;;;;24.20;44.50;;;;;;4933089;28;44839;-61
2022/11/17 11:43:08;;;;;;;;;;;24.30;44.60;;;;;;4933146;28;45846;-66
2022/11/17 11:45:41;;;;;;;;;;;24.30;44.60;;;;;;4937333;28;45397;-63
2022/11/17 11:48:09;;;;;;;;;;;24.30;44.70;;;;;;4922509;28;45344;-64
2022/11/17 11:50:37;;;;;;;;;;;24.40;44.60;;;;;;4920191;28;44825;-64
2022/11/17 11:53:10;;;;;;;;;;;24.40;44.60;;;;;;4937566;28;46396;-61
2022/11/17 11:55:35;;;;;;;;;;;24.40;44.50;;;;;;4932096;28;45423;-62
2022/11/17 11:58:03;;;;;;;;;;;24.40;44.40;;;;;;4939992;28;44996;-62
2022/11/17 12:00:29;;;;;;;;;;;24.50;44.30;;;;;;4941215;28;44776;-64
2022/11/17 12:02:57;;;;;;;;;;;24.50;44.30;;;;;;4934554;28;46940;-60
2022/11/17 12:05:32;;;;;;;;;;;24.50;44.30;;;;;;4932732;28;45214;-64
2022/11/17 12:08:19;;;;;;;;;;;24.50;44.30;;;;;;4927596;28;45199;-64
2022/11/17 12:10:48;;;;;;;;;;;24.50;44.30;;;;;;4920241;28;45395;-62
2022/11/17 12:13:14;;;;;;;;;;;24.50;44.40;;;;;;4941500;28;45198;-61
2022/11/17 12:15:39;;;;;;;;;;;24.50;44.30;;;;;;4927587;28;45317;-63
2022/11/17 12:18:12;;;;;;;;;;;24.60;44.40;;;;;;4926966;28;45275;-62
2022/11/17 12:20:37;;;;;;;;;;;24.60;44.40;;;;;;4921127;28;45525;-62
2022/11/17 12:23:03;;;;;;;;;;;24.60;44.40;;;;;;4942216;28;45859;-62
2022/11/17 12:25:29;;;;;;;;;;;24.50;44.40;;;;;;4942140;28;45410;-59
2022/11/17 12:27:54;;;;;;;;;;;24.60;44.40;;;;;;4939174;28;45441;-66
2022/11/17 12:30:32;;;;;;;;;;;24.60;44.40;;;;;;4933604;28;45167;-58
2022/11/17 12:32:58;;;;;;;;;;;24.60;44.50;;;;;;4946236;28;46008;-64
2022/11/17 12:35:27;;;;;;;;;;;24.60;44.50;;;;;;4938785;28;44793;-64
2022/11/17 12:38:11;;;;;;;;;;;24.60;44.50;;;;;;4941596;28;45267;-62
2022/11/17 12:40:37;;;;;;;;;;;24.60;44.50;;;;;;4939222;28;45280;-58
2022/11/17 12:43:14;;;;;;;;;;;24.70;44.50;;;;;;4941224;28;45996;-63
2022/11/17 12:45:52;;;;;;;;;;;24.70;44.50;;;;;;4931190;28;45141;-59
2022/11/17 12:48:30;;;;;;;;;;;24.70;44.40;;;;;;4946191;28;45177;-61
2022/11/17 12:51:05;;;;;;;;;;;24.80;44.40;;;;;;4922552;28;45456;-64
2022/11/17 12:53:33;;;;;;;;;;;24.80;44.40;;;;;;4927107;28;46010;-63
2022/11/17 12:55:59;;;;;;;;;;;24.80;44.40;;;;;;4936777;28;45285;-65
2022/11/17 12:58:24;;;;;;;;;;;24.80;44.30;;;;;;4922797;28;45436;-64
2022/11/17 13:00:54;;;;;;;;;;;24.80;44.20;;;;;;4936252;28;44774;-60
2022/11/17 13:03:29;;;;;;;;;;;24.80;44.20;;;;;;4928804;28;45888;-67
2022/11/17 13:06:07;;;;;;;;;;;24.80;44.30;;;;;;4921892;28;45239;-63
2022/11/17 13:08:33;;;;;;;;;;;24.80;44.20;;;;;;4940701;28;45282;-60
2022/11/17 13:11:02;;;;;;;;;;;24.90;44.30;;;;;;4937485;28;45490;-61
2022/11/17 13:13:27;;;;;;;;;;;24.90;44.30;;;;;;4939957;28;46033;-63
2022/11/17 13:15:54;;;;;;;;;;;24.90;44.30;;;;;;4939098;28;45365;-66
2022/11/17 13:18:39;;;;;;;;;;;25.00;44.30;;;;;;4929511;28;44783;-63
2022/11/17 13:21:14;;;;;;;;;;;25.00;44.30;;;;;;4922388;28;45207;-64
2022/11/17 13:23:42;;;;;;;;;;;25.00;44.20;;;;;;4939441;28;45996;-62
2022/11/17 13:26:07;;;;;;;;;;;25.00;44.20;;;;;;4937959;28;45460;-65
2022/11/17 13:28:33;;;;;;;;;;;25.00;44.20;;;;;;4936959;28;44688;-63
2022/11/17 13:30:58;;;;;;;;;;;25.10;44.20;;;;;;4919397;28;45563;-64
2022/11/17 13:33:24;;;;;;;;;;;25.00;44.20;;;;;;4941201;28;46184;-63
2022/11/17 13:36:10;;;;;;;;;;;25.10;44.20;;;;;;4937685;28;45312;-61
2022/11/17 13:38:35;;;;;;;;;;;25.10;44.10;;;;;;4939770;28;45325;-64
2022/11/17 13:41:01;;;;;;;;;;;25.10;44.10;;;;;;4928307;28;45747;-63
2022/11/17 13:43:27;;;;;;;;;;;25.10;44.10;;;;;;4920749;28;46052;-64
2022/11/17 13:45:52;;;;;;;;;;;25.20;44.20;;;;;;4936408;28;45157;-69
2022/11/17 13:48:34;;;;;;;;;;;25.20;44.10;;;;;;4932844;28;45233;-62
2022/11/17 13:51:15;;;;;;;;;;;25.20;44.20;;;;;;4938473;28;44770;-66
2022/11/17 13:53:41;;;;;;;;;;;25.20;44.20;;;;;;4924625;28;46083;-62
2022/11/17 13:56:22;;;;;;;;;;;25.10;44.20;;;;;;4929757;28;45096;-67
2022/11/17 13:58:48;;;;;;;;;;;25.00;44.30;;;;;;4939857;28;45118;-64
2022/11/17 14:01:13;;;;;;;;;;;25.00;44.40;;;;;;4917562;28;45475;-65
2022/11/17 14:03:40;;;;;;;;;;;25.00;44.40;;;;;;4920384;28;45643;-61
2022/11/17 14:06:06;;;;;;;;;;;25.10;44.50;;;;;;4921673;28;45252;-65
2022/11/17 14:08:32;;;;;;;;;;;25.00;44.40;;;;;;4941563;28;44829;-65
2022/11/17 14:11:05;;;;;;;;;;;25.10;44.50;;;;;;4938135;28;44771;-66
2022/11/17 14:13:35;;;;;;;;;;;25.10;44.40;;;;;;4938125;28;46166;-61
2022/11/17 14:16:01;;;;;;;;;;;25.00;44.40;;;;;;4920235;28;44768;-64
2022/11/17 14:18:30;;;;;;;;;;;25.00;44.40;;;;;;4938650;28;45459;-68
2022/11/17 14:21:08;;;;;;;;;;;25.00;44.40;;;;;;4919232;28;46291;-63
2022/11/17 14:23:33;;;;;;;;;;;25.10;45.10;;;;;;4936123;28;46222;-67
2022/11/17 14:25:59;;;;;;;;;;;25.10;44.50;;;;;;4939099;28;45191;-63
2022/11/17 14:28:25;;;;;;;;;;;25.00;44.50;;;;;;4940409;28;45276;-64
2022/11/17 14:30:51;;;;;;;;;;;25.10;44.60;;;;;;4936118;28;46015;-62
2022/11/17 14:33:17;;;;;;;;;;;25.10;44.60;;;;;;4940793;28;46250;-62
2022/11/17 14:35:43;;;;;;;;;;;25.10;44.50;;;;;;4936632;28;45268;-64
2022/11/17 14:38:09;;;;;;;;;;;25.10;44.50;;;;;;4921122;28;45565;-67
2022/11/17 14:40:35;;;;;;;;;;;25.10;44.50;;;;;;4921235;28;45858;-65
2022/11/17 14:43:00;;;;;;;;;;;25.20;44.60;;;;;;4939020;28;46040;-65
2022/11/17 14:45:26;;;;;;;;;;;25.20;44.50;;;;;;4936308;28;45300;-64
2022/11/17 14:47:51;;;;;;;;;;;25.20;44.50;;;;;;4938743;28;45001;-62
2022/11/17 14:50:17;;;;;;;;;;;25.20;44.40;;;;;;4936491;28;45532;-63
2022/11/17 14:52:42;;;;;;;;;;;25.30;44.50;;;;;;4927966;28;46297;-58
2022/11/17 14:55:08;;;;;;;;;;;25.30;44.50;;;;;;4931723;28;46027;-63
2022/11/17 14:57:34;;;;;;;;;;;25.30;44.50;;;;;;4934000;28;44798;-64
2022/11/17 14:59:59;;;;;;;;;;;25.20;44.40;;;;;;4935072;28;45308;-63
2022/11/17 15:02:25;;;;;;;;;;;25.30;44.50;;;;;;4937248;28;46182;-62
2022/11/17 15:04:50;;;;;;;;;;;25.20;44.50;;;;;;4935695;28;45234;-65
2022/11/17 15:07:16;;;;;;;;;;;25.20;44.60;;;;;;4933827;28;47061;-62
2022/11/17 15:09:41;;;;;;;;;;;25.30;44.70;;;;;;4935394;28;44725;-66
2022/11/17 15:12:07;;;;;;;;;;;25.20;44.60;;;;;;4935165;28;46767;-65
2022/11/17 15:14:32;;;;;;;;;;;25.20;44.60;;;;;;4935468;28;45284;-59
2022/11/17 15:16:58;;;;;;;;;;;25.20;44.70;;;;;;4933144;28;45246;-63
2022/11/17 15:19:23;;;;;;;;;;;25.30;44.70;;;;;;4931603;28;45376;-65
2022/11/17 15:21:49;;;;;;;;;;;25.20;44.70;;;;;;4934111;28;46049;-65
2022/11/17 15:24:14;;;;;;;;;;;25.20;44.80;;;;;;4936830;28;45307;-67
2022/11/17 15:26:40;;;;;;;;;;;25.20;44.80;;;;;;4936101;28;44778;-65
2022/11/17 15:29:05;;;;;;;;;;;25.20;44.80;;;;;;4940227;28;45875;-61
2022/11/17 15:31:31;;;;;;;;;;;25.20;44.80;;;;;;4935248;28;46085;-65
2022/11/17 15:33:56;;;;;;;;;;;25.20;44.80;;;;;;4941187;28;45510;-62
2022/11/17 15:36:22;;;;;;;;;;;25.20;44.90;;;;;;4936384;28;45380;-65
2022/11/17 15:38:47;;;;;;;;;;;25.20;44.90;;;;;;4938847;28;45208;-61
2022/11/17 15:41:13;;;;;;;;;;;25.30;45.00;;;;;;4938097;28;47693;-63
2022/11/17 15:43:39;;;;;;;;;;;25.20;44.80;;;;;;4942790;28;45215;-63
2022/11/17 15:46:08;;;;;;;;;;;25.30;44.90;;;;;;4942198;28;45613;-62
2022/11/17 15:48:34;;;;;;;;;;;25.30;44.90;;;;;;4937822;28;45467;-63
2022/11/17 15:51:01;;;;;;;;;;;25.30;44.90;;;;;;4934867;28;45112;-64
2022/11/17 15:53:34;;;;;;;;;;;25.30;44.80;;;;;;4941306;28;45293;-63
2022/11/17 15:56:06;;;;;;;;;;;25.40;44.80;;;;;;4942408;28;45439;-64
2022/11/17 15:58:31;;;;;;;;;;;25.40;44.80;;;;;;4939897;28;45502;-65
2022/11/17 16:01:09;;;;;;;;;;;25.40;44.70;;;;;;4946205;28;46136;-63
2022/11/17 16:03:35;;;;;;;;;;;25.40;44.70;;;;;;4938148;28;45306;-63
2022/11/17 16:06:00;;;;;;;;;;;25.40;44.80;;;;;;4932947;28;45261;-66
2022/11/17 16:08:26;;;;;;;;;;;25.40;44.80;;;;;;4935854;28;45286;-62
2022/11/17 16:10:51;;;;;;;;;;;25.40;44.80;;;;;;4940784;28;45858;-64
2022/11/17 16:13:17;;;;;;;;;;;25.40;44.80;;;;;;4937736;28;44968;-64
2022/11/17 16:15:46;;;;;;;;;;;25.40;44.80;;;;;;4919934;28;45320;-63
2022/11/17 16:18:11;;;;;;;;;;;25.40;44.80;;;;;;4939345;28;45007;-65
2022/11/17 16:20:37;;;;;;;;;;;25.40;44.80;;;;;;4932002;28;45942;-59
2022/11/17 16:23:02;;;;;;;;;;;25.40;44.90;;;;;;4939010;28;45185;-64
2022/11/17 16:25:28;;;;;;;;;;;25.30;44.80;;;;;;4936967;28;45581;-66
2022/11/17 16:27:54;;;;;;;;;;;25.30;44.80;;;;;;4942857;28;45261;-67
2022/11/17 16:30:19;;;;;;;;;;;25.30;44.90;;;;;;4934151;28;45801;-68
2022/11/17 16:32:45;;;;;;;;;;;25.10;44.80;;;;;;4936440;28;45389;-64
2022/11/17 16:35:10;;;;;;;;;;;25.10;45.10;;;;;;4935960;28;45269;-66
2022/11/17 16:37:36;;;;;;;;;;;25.00;45.20;;;;;;4935497;28;45240;-65
2022/11/17 16:40:03;;;;;;;;;;;24.90;45.40;;;;;;4921163;28;46352;-68
2022/11/17 16:42:28;;;;;;;;;;;24.80;45.50;;;;;;4938680;28;45198;-66
2022/11/17 16:44:54;;;;;;;;;;;24.70;45.70;;;;;;4938043;28;45193;-68
2022/11/17 16:47:19;;;;;;;;;;;24.60;45.90;;;;;;4932934;28;45219;-63
2022/11/17 16:49:45;;;;;;;;;;;24.50;45.90;;;;;;4935602;28;46042;-65
2022/11/17 16:52:10;;;;;;;;;;;24.50;46.00;;;;;;4937961;28;44731;-64
2022/11/17 16:54:36;;;;;;;;;;;24.40;46.10;;;;;;4938397;28;45223;-66
2022/11/17 16:57:01;;;;;;;;;;;24.40;46.20;;;;;;4937550;28;45256;-67
2022/11/17 16:59:27;;;;;;;;;;;24.40;46.30;;;;;;4934307;28;45197;-62
2022/11/17 17:01:52;;;;;;;;;;;24.30;46.40;;;;;;4931052;28;46365;-68
2022/11/17 17:04:18;;;;;;;;;;;24.20;46.50;;;;;;4934955;28;45085;-63
2022/11/17 17:06:44;;;;;;;;;;;24.10;46.50;;;;;;4935668;28;45213;-66
2022/11/17 17:09:10;;;;;;;;;;;24.10;46.60;;;;;;4934501;28;48410;-65
2022/11/17 17:11:36;;;;;;;;;;;24.00;46.70;;;;;;4938832;28;44638;-64
2022/11/17 17:14:03;;;;;;;;;;;24.00;46.80;;;;;;4939567;28;45051;-65
2022/11/17 17:16:29;;;;;;;;;;;23.90;46.90;;;;;;4934215;28;45355;-67
2022/11/17 17:18:55;;;;;;;;;;;23.80;46.90;;;;;;4931418;28;47095;-67
2022/11/17 17:21:20;;;;;;;;;;;23.70;47.00;;;;;;4936887;28;45298;-65
2022/11/17 17:23:46;;;;;;;;;;;23.70;47.10;;;;;;4934871;28;44866;-66
2022/11/17 17:26:13;;;;;;;;;;;23.60;47.20;;;;;;4927822;28;45497;-70
2022/11/17 17:28:39;;;;;;;;;;;23.60;47.20;;;;;;4934623;28;45604;-63
2022/11/17 17:31:05;;;;;;;;;;;23.60;47.40;;;;;;4934102;28;45186;-66
2022/11/17 17:33:31;;;;;;;;;;;23.50;47.30;;;;;;4940108;28;45137;-60
2022/11/17 17:36:06;;;;;;;;;;;23.50;47.40;;;;;;4933795;28;44768;-66
2022/11/17 17:38:32;;;;;;;;;;;23.40;47.50;;;;;;4937123;28;46378;-62
2022/11/17 17:41:07;;;;;;;;;;;23.30;47.50;;;;;;4932810;28;45292;-65
2022/11/17 17:43:33;;;;;;;;;;;23.30;47.60;;;;;;4938963;28;45261;-66
2022/11/17 17:46:00;;;;;;;;;;;23.20;47.70;;;;;;4937247;28;44913;-63
2022/11/17 17:48:25;;;;;;;;;;;23.20;47.80;;;;;;4932841;28;47182;-67
2022/11/17 17:50:51;;;;;;;;;;;23.10;47.80;;;;;;4933089;28;44622;-64
2022/11/17 17:53:16;;;;;;;;;;;23.10;47.90;;;;;;4938686;28;45145;-66
2022/11/17 17:55:41;;;;;;;;;;;23.10;47.90;;;;;;4933459;28;45937;-66
2022/11/17 17:58:07;;;;;;;;;;;23.00;47.90;;;;;;4936005;28;46492;-67
2022/11/17 18:00:32;;;;;;;;;;;22.90;48.00;;;;;;4935356;28;45139;-64
2022/11/17 18:02:59;;;;;;;;;;;22.90;48.10;;;;;;4939543;28;45178;-63
2022/11/17 18:05:24;;;;;;;;;;;22.90;48.10;;;;;;4920395;28;45310;-65
2022/11/17 18:07:50;;;;;;;;;;;22.90;48.20;;;;;;4933562;28;45141;-65
2022/11/17 18:10:15;;;;;;;;;;;22.80;48.30;;;;;;4933664;28;45068;-68
2022/11/17 18:12:41;;;;;;;;;;;22.80;48.40;;;;;;4946398;28;44804;-64
2022/11/17 18:15:06;;;;;;;;;;;22.70;48.40;;;;;;4935760;28;45613;-65
2022/11/17 18:17:32;;;;;;;;;;;22.60;48.50;;;;;;4937851;28;45309;-64
2022/11/17 18:19:57;;;;;;;;;;;22.60;48.50;;;;;;4932546;28;45222;-66
2022/11/17 18:22:23;;;;;;;;;;;22.60;48.60;;;;;;4937282;28;45861;-60
2022/11/17 18:24:48;;;;;;;;;;;22.50;48.60;;;;;;4940297;28;45598;-62
2022/11/17 18:27:14;;;;;;;;;;;22.50;48.70;;;;;;4932809;28;45522;-68
2022/11/17 18:29:39;;;;;;;;;;;22.50;48.70;;;;;;4936858;28;45436;-62
2022/11/17 18:32:05;;;;;;;;;;;22.40;48.80;;;;;;4926037;28;45387;-66
2022/11/17 18:34:31;;;;;;;;;;;22.40;48.80;;;;;;4928634;28;45702;-60
2022/11/17 18:36:56;;;;;;;;;;;22.30;48.80;;;;;;4933001;28;45950;-64